Timimoun, Timimoun Airport (DAUT)

NameTimimoun Airport
CityTimimoun
CountryAlgeria
ICAODAUT
IATATMX
Altitude0 m
CoordinatesGoogle Map
Live Air TrafficLiveATC.net
METARDAUT 140100Z 19006KT CAVOK 13/M02 Q1016
2019-11-14 01:00:00 Wind: South (190°) 3.09 m/s - Visibility: > 10000 m - Weather: CAVOK - Temperature: 13 °C - Dew point: -2 °C - Humidity: 35.6% - Pressure: 1016 hPa

Sorry, no flights used the airport in this database.